Whittemore, Iowa
Current Conditions -  °F | °C
As of 4:55 PM on Sunday 21 Dec 2014 (Local Time) from KAXA Reporting Station
Haze Haze  
Wind Chill: -3°   Ceiling: 400
Heat Index:   Visibility: 3mi
Dew Point:   Wind: 22mph
Humidity: 100%   Direction: 180°S
Pressure: 29.73"   Gusts: NA
Location:  43.06°N, 94.43°W
Report Text: KAXA 212255Z AUTO 18019KT 3SM BR OVC004 03/03 A2973 RMK AO2
Loading
Personal Weather Stations






























Interactive Weather Map New forecast layout! Learn more

10-Day Weather Forecast

Advertisements
Track Severe Weather on mobile